Terminal Aerodrome Forecast
Issued by NWS Jackson, MS

Home | Current Version | Previous Version | Text Only | Print | Product List | Glossary On
Versions: 1 2 3 4 5 6 7 8 9 10 11 12 13
237
FTUS44 KMEG 251721
TAFTUP
TAF
KTUP 251721Z 2518/2618 12010KT P6SM VCSH SCT035 BKN060
     FM252000 17012G20KT P6SM VCTS SCT040CB BKN090
      TEMPO 2521/2601 VRB15G30KT 2SM TSRA SCT015 OVC035CB
     FM260100 19006KT P6SM VCSH BKN040 BKN080
     FM260400 VRB03KT P6SM SCT009 OVC040
      TEMPO 2606/2610 4SM BR BKN009=

USA.gov is the U.S. government's official web portal to all federal, state and local government web resources and services.